DAAG/ALG METAR and TAF weather

Enter ICAO airport designator
Station Type Date Time Source
DAAG METAR 2020/07/12 05:00 UTC NOAA

DAAG 120500Z 00000KT 1200 R09/P2000N BR FEW010 21/21 Q1016


Station Type Date Time Source
DAAG Decoded METAR 2020/07/12 05:00 UTC NOAA

Dar-El-Beida, Algeria (DAAG) 36-43N 003-15E 25M
Jul 12, 2020 - 01:00 AM EDT / 2020.07.12 0500 UTC
Wind: Calm:0
Visibility: less than 1 mile:0
Sky conditions: mostly clear
Weather: mist
Temperature: 69 F (21 C)
Dew Point: 69 F (21 C)
Relative Humidity: 100%
Pressure (altimeter): 30.00 in. Hg (1016 hPa)
ob: DAAG 120500Z 00000KT 1200 R09/P2000N BR FEW010 21/21 Q1016
cycle: 5

Station Type Date Time Source
DAAG TAF 2020/07/11 18:33 UTC NOAA

TAF TAF DAAG 111700Z 1118/1218 03010KT 8000 FEW020 PROB40 1118/1202 BKN015
BECMG 1119/1122 VRB02KT PROB30
TEMPO 1200/1207 2000 BR BKN010

Example: see airport list